Western King — CY7367 — position and weather

sailwx.info

Track history (hours):
 
Tides and Currents Weather Stations Pressure Air Temp Water Temp Dewpoint Dewpoint Depression Visibility Wind Speed Wind Dir Waves Ship Positions

Western King

Last reported at 2016-Nov-15 00:30 UTC. Time now 2016-Dec-08 06:03 UTC.
Position N 49°40' W 124°51'.
Warning: this ship's position is 23 days out of date.

Length 23 m; draft 3.8 m.

Type: Fishing. MMSI: 316003779.

Date/timePositionNaut miles runAvg speedWind from/ knotsBaromVisibWave heightAir tempDewpointWater temp
2016-Nov-15 00:30N 49°40' W 124°51'7 8.7
2016-Nov-14 23:43N 49°33' W 124°51'19 4.5
2016-Nov-14 19:33N 49°23' W 124°27'2 0.8
2016-Nov-14 17:33N 49°23' W 124°24'1 1.1
2016-Nov-14 16:33N 49°22' W 124°26'1 1.0
2016-Nov-14 15:33N 49°22' W 124°25'2 0.6
2016-Nov-14 11:34N 49°21' W 124°21'2 0.8
2016-Nov-14 08:33N 49°21' W 124°18'25 8.3
2016-Nov-14 05:33N 49°06' W 123°47'1 0.0
2016-Nov-12 23:15N 49°05' W 123°46'15 8.7
2016-Nov-12 21:33N 49°16' W 124°02'17 8.6
2016-Nov-12 19:33N 49°23' W 124°26'4 2.1
2016-Nov-12 17:33N 49°26' W 124°31'6 5.7
2016-Nov-12 16:33N 49°29' W 124°39'3 3.5
2016-Nov-12 15:33N 49°28' W 124°44'0 0.0
2016-Nov-12 14:33N 49°28' W 124°44'0 0.0
2016-Nov-12 13:33N 49°28' W 124°44'0 0.0
2016-Nov-12 12:34N 49°28' W 124°44'0 0.0
2016-Nov-12 11:33N 49°28' W 124°44'0 0.0
2016-Nov-12 09:33N 49°28' W 124°44'0 0.0
2016-Nov-12 06:33N 49°28' W 124°44'0 0.0
2016-Nov-12 03:33N 49°28' W 124°44'0 0.0
2016-Nov-12 02:33N 49°28' W 124°44'0 0.0
2016-Nov-12 00:33N 49°28' W 124°44'0 0.0
2016-Nov-11 23:34N 49°28' W 124°44'0 0.0
2016-Nov-11 19:33N 49°28' W 124°44'0 0.0
2016-Nov-11 15:33N 49°28' W 124°44'0 0.0
2016-Nov-11 14:33N 49°28' W 124°44'0 0.0
2016-Nov-11 10:33N 49°28' W 124°44'0 0.0
2016-Nov-11 09:33N 49°28' W 124°44'0 0.0
2016-Nov-11 06:11N 49°28' W 124°44'0 0.0
2016-Nov-11 05:30N 49°28' W 124°44'0 0.0
2016-Nov-11 04:33N 49°28' W 124°44'0 0.0
2016-Nov-11 03:31N 49°28' W 124°44'0 0.0
2016-Nov-11 02:33N 49°28' W 124°44'0 0.0
2016-Nov-11 01:33N 49°28' W 124°44'4 4.3
2016-Nov-11 00:33N 49°27' W 124°37'9 8.8
2016-Nov-10 23:33N 49°23' W 124°25'3 3.1
2016-Nov-10 22:34N 49°21' W 124°21'0 0.0
2016-Nov-10 20:33N 49°21' W 124°21'0 0.0
2016-Nov-10 18:33N 49°21' W 124°21'3 1.3
2016-Nov-10 16:34N 49°23' W 124°24'1 0.6
2016-Nov-10 15:33N 49°23' W 124°24'3 0.7
2016-Nov-10 11:33N 49°21' W 124°21'0 0.0
2016-Nov-10 10:33N 49°21' W 124°21'0 0.0
2016-Nov-10 09:33N 49°21' W 124°21'0 0.0
2016-Nov-10 08:33N 49°21' W 124°21'0 0.0
2016-Nov-10 07:33N 49°21' W 124°21'0 0.0
2016-Nov-10 06:33N 49°21' W 124°21'0 0.0
2016-Nov-10 05:33N 49°21' W 124°21'0 0.0
2016-Nov-10 04:33N 49°21' W 124°21'4 1.0
2016-Nov-10 00:33N 49°22' W 124°27'1 0.3
2016-Nov-09 22:33N 49°22' W 124°28'2 0.9
2016-Nov-09 20:37N 49°22' W 124°25'1 1.3
2016-Nov-09 19:52N 49°22' W 124°27'1 1.2
2016-Nov-09 19:06N 49°23' W 124°28'1 1.6
2016-Nov-09 18:33N 49°22' W 124°27'2 2.4
2016-Nov-09 17:33N 49°24' W 124°24'4 1.8
2016-Nov-09 15:33N 49°23' W 124°29'2 1.0
2016-Nov-09 13:33N 49°22' W 124°27'0 0.0
2016-Nov-09 08:33N 49°22' W 124°27'0 0.0
2016-Nov-09 07:33N 49°22' W 124°27'0 0.0
2016-Nov-09 05:33N 49°22' W 124°27'0 0.0
2016-Nov-09 04:33N 49°22' W 124°27'2 1.1
2016-Nov-09 02:33N 49°22' W 124°24'28 9.4
2016-Nov-08 23:33N 49°13' W 123°43'11 9.8
2016-Nov-08 22:28N 49°09' W 123°28'8 8.8
2016-Nov-08 21:33N 49°07' W 123°16'4 3.9
2016-Nov-08 20:34N 49°07' W 123°10'1 0.7
2016-Nov-08 19:32N 49°07' W 123°11'0 0.0
2016-Nov-08 18:33N 49°07' W 123°11'0 0.0
2016-Nov-08 17:28N 49°07' W 123°11'0 0.0
2016-Nov-08 15:22N 49°07' W 123°11'0 0.0
2016-Nov-08 09:33N 49°07' W 123°11'0 0.0
2016-Nov-08 06:33N 49°07' W 123°11'0 0.0
2016-Nov-08 04:16N 49°07' W 123°11'1 0.2
2016-Nov-08 00:26N 49°07' W 123°10'0 0.0
2016-Nov-07 23:32N 49°07' W 123°10'23 5.8
2016-Nov-07 19:33N 49°05' W 123°45'9 4.3
2016-Nov-07 17:33N 49°10' W 123°56'0 0.0
2016-Nov-07 16:33N 49°10' W 123°56'0 0.0
2016-Nov-07 15:33N 49°10' W 123°56'0 0.0
2016-Nov-07 14:33N 49°10' W 123°56'0 0.0
2016-Nov-07 13:33N 49°10' W 123°56'0 0.0
2016-Nov-07 09:33N 49°10' W 123°56'0 0.0
2016-Nov-07 08:33N 49°10' W 123°56'0 0.0
2016-Nov-07 07:33N 49°10' W 123°56'0 0.0
2016-Nov-07 06:33N 49°10' W 123°56'0 0.0
2016-Nov-07 05:31N 49°10' W 123°56'12 4.0
2016-Nov-07 02:33N 49°18' W 124°09'7 7.5
2016-Nov-07 01:34N 49°21' W 124°20'4 1.3
2016-Nov-06 22:34N 49°22' W 124°26'2 0.8
2016-Nov-06 20:33N 49°22' W 124°28'0 0.2
2016-Nov-06 19:33N 49°22' W 124°28'0 0.1
2016-Nov-06 17:33N 49°22' W 124°28'0 0.2
2016-Nov-06 15:33N 49°23' W 124°28'11 5.6
2016-Nov-06 13:31N 49°28' W 124°44'0 0.0
2016-Nov-06 12:33N 49°28' W 124°44'0 0.0
2016-Nov-06 11:33N 49°28' W 124°44'0 0.0
2016-Nov-06 10:33N 49°28' W 124°44'0 0.0
2016-Nov-06 08:33N 49°28' W 124°44'0 0.0
2016-Nov-06 07:28N 49°28' W 124°44'12 1.5
2016-Nov-05 23:33N 49°23' W 124°28'1 0.6
2016-Nov-05 21:33N 49°23' W 124°29'5 5.9
2016-Nov-05 20:43N 49°26' W 124°36'1 7.3
2016-Nov-05 20:33N 49°26' W 124°34'6 1.5
2016-Nov-05 16:33N 49°22' W 124°27'13 3.1
2016-Nov-05 12:31N 49°28' W 124°44'0 0.0
2016-Nov-05 11:34N 49°28' W 124°44'0 0.0
2016-Nov-05 10:32N 49°28' W 124°44'0 0.0
2016-Nov-05 09:33N 49°28' W 124°44'0 0.0
2016-Nov-05 08:32N 49°28' W 124°44'0 0.0
2016-Nov-05 07:33N 49°28' W 124°44'0 0.0
2016-Nov-05 04:33N 49°28' W 124°44'0 0.0
2016-Nov-05 02:33N 49°28' W 124°44'0 0.0
2016-Nov-05 01:33N 49°28' W 124°44'  
Track history (hours):
 
Tides and Currents Weather Stations Pressure Air Temp Water Temp Dewpoint Dewpoint Depression Visibility Wind Speed Wind Dir Waves Ship Positions

Western King

Last reported at 2016-Nov-15 00:30 UTC. Time now 2016-Dec-08 06:03 UTC.
Position N 49°40' W 124°51'.
Warning: this ship's position is 23 days out of date.

Length 23 m; draft 3.8 m.

Type: Fishing. MMSI: 316003779.

Date/timePositionNaut miles runAvg speedWind from/ knotsBaromVisibWave heightAir tempDewpointWater temp
2016-Nov-15 00:30N 49°40' W 124°51'7 8.7
2016-Nov-14 23:43N 49°33' W 124°51'19 4.5
2016-Nov-14 19:33N 49°23' W 124°27'2 0.8
2016-Nov-14 17:33N 49°23' W 124°24'1 1.1
2016-Nov-14 16:33N 49°22' W 124°26'1 1.0
2016-Nov-14 15:33N 49°22' W 124°25'2 0.6
2016-Nov-14 11:34N 49°21' W 124°21'2 0.8
2016-Nov-14 08:33N 49°21' W 124°18'25 8.3
2016-Nov-14 05:33N 49°06' W 123°47'1 0.0
2016-Nov-12 23:15N 49°05' W 123°46'15 8.7
2016-Nov-12 21:33N 49°16' W 124°02'17 8.6
2016-Nov-12 19:33N 49°23' W 124°26'4 2.1
2016-Nov-12 17:33N 49°26' W 124°31'6 5.7
2016-Nov-12 16:33N 49°29' W 124°39'3 3.5
2016-Nov-12 15:33N 49°28' W 124°44'0 0.0
2016-Nov-12 14:33N 49°28' W 124°44'0 0.0
2016-Nov-12 13:33N 49°28' W 124°44'0 0.0
2016-Nov-12 12:34N 49°28' W 124°44'0 0.0
2016-Nov-12 11:33N 49°28' W 124°44'0 0.0
2016-Nov-12 09:33N 49°28' W 124°44'0 0.0
2016-Nov-12 06:33N 49°28' W 124°44'0 0.0
2016-Nov-12 03:33N 49°28' W 124°44'0 0.0
2016-Nov-12 02:33N 49°28' W 124°44'0 0.0
2016-Nov-12 00:33N 49°28' W 124°44'0 0.0
2016-Nov-11 23:34N 49°28' W 124°44'0 0.0
2016-Nov-11 19:33N 49°28' W 124°44'0 0.0
2016-Nov-11 15:33N 49°28' W 124°44'0 0.0
2016-Nov-11 14:33N 49°28' W 124°44'0 0.0
2016-Nov-11 10:33N 49°28' W 124°44'0 0.0
2016-Nov-11 09:33N 49°28' W 124°44'0 0.0
2016-Nov-11 06:11N 49°28' W 124°44'0 0.0
2016-Nov-11 05:30N 49°28' W 124°44'0 0.0
2016-Nov-11 04:33N 49°28' W 124°44'0 0.0
2016-Nov-11 03:31N 49°28' W 124°44'0 0.0
2016-Nov-11 02:33N 49°28' W 124°44'0 0.0
2016-Nov-11 01:33N 49°28' W 124°44'4 4.3
2016-Nov-11 00:33N 49°27' W 124°37'9 8.8
2016-Nov-10 23:33N 49°23' W 124°25'3 3.1
2016-Nov-10 22:34N 49°21' W 124°21'0 0.0
2016-Nov-10 20:33N 49°21' W 124°21'0 0.0
2016-Nov-10 18:33N 49°21' W 124°21'3 1.3
2016-Nov-10 16:34N 49°23' W 124°24'1 0.6
2016-Nov-10 15:33N 49°23' W 124°24'3 0.7
2016-Nov-10 11:33N 49°21' W 124°21'0 0.0
2016-Nov-10 10:33N 49°21' W 124°21'0 0.0
2016-Nov-10 09:33N 49°21' W 124°21'0 0.0
2016-Nov-10 08:33N 49°21' W 124°21'0 0.0
2016-Nov-10 07:33N 49°21' W 124°21'0 0.0
2016-Nov-10 06:33N 49°21' W 124°21'0 0.0
2016-Nov-10 05:33N 49°21' W 124°21'0 0.0
2016-Nov-10 04:33N 49°21' W 124°21'4 1.0
2016-Nov-10 00:33N 49°22' W 124°27'1 0.3
2016-Nov-09 22:33N 49°22' W 124°28'2 0.9
2016-Nov-09 20:37N 49°22' W 124°25'1 1.3
2016-Nov-09 19:52N 49°22' W 124°27'1 1.2
2016-Nov-09 19:06N 49°23' W 124°28'1 1.6
2016-Nov-09 18:33N 49°22' W 124°27'2 2.4
2016-Nov-09 17:33N 49°24' W 124°24'4 1.8
2016-Nov-09 15:33N 49°23' W 124°29'2 1.0
2016-Nov-09 13:33N 49°22' W 124°27'0 0.0
2016-Nov-09 08:33N 49°22' W 124°27'0 0.0
2016-Nov-09 07:33N 49°22' W 124°27'0 0.0
2016-Nov-09 05:33N 49°22' W 124°27'0 0.0
2016-Nov-09 04:33N 49°22' W 124°27'2 1.1
2016-Nov-09 02:33N 49°22' W 124°24'28 9.4
2016-Nov-08 23:33N 49°13' W 123°43'11 9.8
2016-Nov-08 22:28N 49°09' W 123°28'8 8.8
2016-Nov-08 21:33N 49°07' W 123°16'4 3.9
2016-Nov-08 20:34N 49°07' W 123°10'1 0.7
2016-Nov-08 19:32N 49°07' W 123°11'0 0.0
2016-Nov-08 18:33N 49°07' W 123°11'0 0.0
2016-Nov-08 17:28N 49°07' W 123°11'0 0.0
2016-Nov-08 15:22N 49°07' W 123°11'0 0.0
2016-Nov-08 09:33N 49°07' W 123°11'0 0.0
2016-Nov-08 06:33N 49°07' W 123°11'0 0.0
2016-Nov-08 04:16N 49°07' W 123°11'1 0.2
2016-Nov-08 00:26N 49°07' W 123°10'0 0.0
2016-Nov-07 23:32N 49°07' W 123°10'23 5.8
2016-Nov-07 19:33N 49°05' W 123°45'9 4.3
2016-Nov-07 17:33N 49°10' W 123°56'0 0.0
2016-Nov-07 16:33N 49°10' W 123°56'0 0.0
2016-Nov-07 15:33N 49°10' W 123°56'0 0.0
2016-Nov-07 14:33N 49°10' W 123°56'0 0.0
2016-Nov-07 13:33N 49°10' W 123°56'0 0.0
2016-Nov-07 09:33N 49°10' W 123°56'0 0.0
2016-Nov-07 08:33N 49°10' W 123°56'0 0.0
2016-Nov-07 07:33N 49°10' W 123°56'0 0.0
2016-Nov-07 06:33N 49°10' W 123°56'0 0.0
2016-Nov-07 05:31N 49°10' W 123°56'12 4.0
2016-Nov-07 02:33N 49°18' W 124°09'7 7.5
2016-Nov-07 01:34N 49°21' W 124°20'4 1.3
2016-Nov-06 22:34N 49°22' W 124°26'2 0.8
2016-Nov-06 20:33N 49°22' W 124°28'0 0.2
2016-Nov-06 19:33N 49°22' W 124°28'0 0.1
2016-Nov-06 17:33N 49°22' W 124°28'0 0.2
2016-Nov-06 15:33N 49°23' W 124°28'11 5.6
2016-Nov-06 13:31N 49°28' W 124°44'0 0.0
2016-Nov-06 12:33N 49°28' W 124°44'0 0.0
2016-Nov-06 11:33N 49°28' W 124°44'0 0.0
2016-Nov-06 10:33N 49°28' W 124°44'0 0.0
2016-Nov-06 08:33N 49°28' W 124°44'0 0.0
2016-Nov-06 07:28N 49°28' W 124°44'12 1.5
2016-Nov-05 23:33N 49°23' W 124°28'1 0.6
2016-Nov-05 21:33N 49°23' W 124°29'5 5.9
2016-Nov-05 20:43N 49°26' W 124°36'1 7.3
2016-Nov-05 20:33N 49°26' W 124°34'6 1.5
2016-Nov-05 16:33N 49°22' W 124°27'13 3.1
2016-Nov-05 12:31N 49°28' W 124°44'0 0.0
2016-Nov-05 11:34N 49°28' W 124°44'0 0.0
2016-Nov-05 10:32N 49°28' W 124°44'0 0.0
2016-Nov-05 09:33N 49°28' W 124°44'0 0.0
2016-Nov-05 08:32N 49°28' W 124°44'0 0.0
2016-Nov-05 07:33N 49°28' W 124°44'0 0.0
2016-Nov-05 04:33N 49°28' W 124°44'0 0.0
2016-Nov-05 02:33N 49°28' W 124°44'0 0.0
2016-Nov-05 01:33N 49°28' W 124°44'  

Dump ship's entire track history